Kriti Spirit — D5FU7 — position and weather

sailwx.info

Track history (hours):
 
Tides and Currents Weather Stations Pressure Air Temp Water Temp Dewpoint Dewpoint Depression Visibility Wind Speed Wind Dir Waves Ship Positions

Kriti Spirit

Last reported at 2018-Jan-19 04:03 UTC. Time now 2018-Feb-23 08:56 UTC.
Position N 36°07' E 026°31'.
Warning: this ship's position is 35 days out of date.

Length 274 m; draft 9.5 m.

Type: Tanker. MMSI: 636016367.

Date/timePositionNaut miles runAvg speedWind from/ knotsBaromVisibWave heightAir tempDewpointWater temp
2018-Jan-19 04:03N 36°07' E 026°31'112.6
2018-Jan-19 04:00N 36°07' E 026°30'612.9
2018-Jan-19 03:31N 36°08' E 026°23'612.9
2018-Jan-19 03:01N 36°09' E 026°15'713.1
2018-Jan-19 02:30N 36°10' E 026°07'612.9
2018-Jan-19 02:01N 36°10' E 025°59'612.9
2018-Jan-19 01:30N 36°11' E 025°51'613.0
2018-Jan-19 01:00N 36°12' E 025°43'713.1
2018-Jan-19 00:31N 36°14' E 025°35'713.0
2018-Jan-19 00:00N 36°15' E 025°27'713.1
2018-Jan-18 23:30N 36°17' E 025°19'612.9
2018-Jan-18 23:00N 36°20' E 025°13'612.9
2018-Jan-18 22:30N 36°24' E 025°06'613.0
2018-Jan-18 22:00N 36°27' E 024°59'713.1
2018-Jan-18 21:30N 36°31' E 024°52'713.0
2018-Jan-18 20:59N 36°36' E 024°46'612.7
2018-Jan-18 20:30N 36°42' E 024°46'713.1
2018-Jan-18 20:00N 36°48' E 024°45'713.4
2018-Jan-18 19:30N 36°53' E 024°39'713.4
2018-Jan-18 19:00N 36°57' E 024°32'713.2
2018-Jan-18 18:30N 37°01' E 024°26'613.0
2018-Jan-18 18:00N 37°04' E 024°19'612.8
2018-Jan-18 17:30N 37°08' E 024°12'612.6
2018-Jan-18 17:00N 37°11' E 024°06'612.8
2018-Jan-18 16:30N 37°15' E 023°59'812.9
2018-Jan-18 15:56N 37°20' E 023°52'713.4
2018-Jan-18 15:25N 37°26' E 023°49'613.7
2018-Jan-18 15:00N 37°31' E 023°46'713.4
2018-Jan-18 14:30N 37°38' E 023°43'713.5
2018-Jan-18 14:00N 37°44' E 023°40'713.5
2018-Jan-18 13:30N 37°49' E 023°34'713.0
2018-Jan-18 13:00N 37°50' E 023°26'713.4
2018-Jan-18 12:31N 37°52' E 023°18'713.4
2018-Jan-18 12:00N 37°53' E 023°10'3 5.7
2018-Jan-18 11:30N 37°54' E 023°06'2 3.1
2018-Jan-18 11:00N 37°53' E 023°08'3 6.1
2018-Jan-18 10:30N 37°53' E 023°12'2 3.2
2018-Jan-18 10:00N 37°54' E 023°14'1 1.5
2018-Jan-18 09:30N 37°53' E 023°13'1 1.3
2018-Jan-18 09:00N 37°53' E 023°12'1 1.8
2018-Jan-18 08:30N 37°54' E 023°11'1 2.2
2018-Jan-18 08:00N 37°54' E 023°10'1 1.0
2018-Jan-18 07:30N 37°54' E 023°10'1 1.3
2018-Jan-18 07:00N 37°53' E 023°11'1 1.8
2018-Jan-18 06:30N 37°54' E 023°10'2 4.4
2018-Jan-18 06:00N 37°54' E 023°07'1 2.0
2018-Jan-18 05:29N 37°54' E 023°06'0 0.6
2018-Jan-18 04:59N 37°54' E 023°06'0 0.3
2018-Jan-18 04:29N 37°54' E 023°06'0 0.6
2018-Jan-18 03:59N 37°54' E 023°06'0 0.6
2018-Jan-18 03:29N 37°54' E 023°06'0 0.7
2018-Jan-18 02:59N 37°54' E 023°06'0 0.4
2018-Jan-18 02:29N 37°54' E 023°06'0 0.2
2018-Jan-18 01:59N 37°54' E 023°06'0 0.2
2018-Jan-18 01:29N 37°54' E 023°06'0 0.3
2018-Jan-18 00:59N 37°54' E 023°06'0 0.3
2018-Jan-17 23:59N 37°54' E 023°06'0 1.7
2018-Jan-17 23:56N 37°54' E 023°06'  
2018-Jan-12 14:59N 37°54' E 023°05'0 0.2
2018-Jan-12 14:29N 37°54' E 023°05'0 0.1
2018-Jan-12 13:59N 37°54' E 023°05'0 0.0
2018-Jan-12 13:29N 37°54' E 023°05'0 0.1
2018-Jan-12 12:59N 37°54' E 023°05'0 0.0
2018-Jan-12 12:29N 37°54' E 023°05'0 0.1
2018-Jan-12 11:59N 37°54' E 023°05'0 0.2
2018-Jan-12 11:29N 37°54' E 023°05'0 0.2
2018-Jan-12 10:59N 37°54' E 023°05'0 0.2
2018-Jan-12 10:29N 37°54' E 023°05'0 0.1
2018-Jan-12 09:59N 37°54' E 023°05'0 0.0
2018-Jan-12 09:29N 37°54' E 023°05'0 0.1
2018-Jan-12 08:59N 37°54' E 023°05'0 0.1
2018-Jan-12 08:29N 37°54' E 023°05'0 0.0
2018-Jan-12 07:59N 37°54' E 023°05'0 0.1
2018-Jan-12 07:29N 37°54' E 023°05'0 0.0
2018-Jan-12 06:59N 37°54' E 023°05'0 0.1
2018-Jan-12 06:26N 37°54' E 023°05'0 0.0
2018-Jan-12 05:59N 37°54' E 023°05'0 0.0
2018-Jan-12 05:29N 37°54' E 023°05'0 0.1
2018-Jan-12 04:59N 37°54' E 023°05'0 0.1
2018-Jan-12 04:29N 37°54' E 023°05'0 0.1
2018-Jan-12 03:59N 37°54' E 023°05'0 0.0
2018-Jan-12 03:29N 37°54' E 023°05'0 0.1
2018-Jan-12 02:59N 37°54' E 023°05'0 0.0
2018-Jan-12 02:29N 37°54' E 023°05'0 0.1
2018-Jan-12 01:59N 37°54' E 023°05'0 0.0
2018-Jan-12 01:29N 37°54' E 023°05'0 0.1
2018-Jan-12 00:59N 37°54' E 023°05'0 0.0
2018-Jan-12 00:29N 37°54' E 023°05'0 0.0
2018-Jan-11 23:59N 37°54' E 023°05'0 0.1
2018-Jan-11 23:29N 37°54' E 023°05'0 0.1
2018-Jan-11 22:59N 37°54' E 023°05'0 0.0
2018-Jan-11 22:29N 37°54' E 023°05'0 0.1
2018-Jan-11 21:59N 37°54' E 023°05'0 0.1
2018-Jan-11 21:29N 37°54' E 023°05'0 0.0
2018-Jan-11 20:59N 37°54' E 023°05'0 0.1
2018-Jan-11 20:29N 37°54' E 023°05'0 0.1
2018-Jan-11 19:59N 37°54' E 023°05'0 0.1
2018-Jan-11 19:29N 37°54' E 023°05'0 0.1
2018-Jan-11 18:59N 37°54' E 023°05'0 0.0
2018-Jan-11 18:29N 37°54' E 023°05'0 0.0
2018-Jan-11 17:59N 37°54' E 023°05'0 0.0
2018-Jan-11 17:29N 37°54' E 023°05'0 0.1
2018-Jan-11 16:59N 37°54' E 023°05'0 0.0
2018-Jan-11 16:29N 37°54' E 023°05'0 0.0
2018-Jan-11 15:59N 37°54' E 023°05'0 0.1
2018-Jan-11 15:29N 37°54' E 023°05'0 0.1
2018-Jan-11 14:59N 37°54' E 023°05'0 0.1
2018-Jan-11 14:29N 37°54' E 023°05'0 0.0
2018-Jan-11 13:56N 37°54' E 023°05'0 0.0
2018-Jan-11 13:29N 37°54' E 023°05'0 0.0
2018-Jan-11 12:59N 37°54' E 023°05'0 0.0
2018-Jan-11 12:29N 37°54' E 023°05'0 0.0
2018-Jan-11 11:59N 37°54' E 023°05'0 0.0
2018-Jan-11 11:29N 37°54' E 023°05'0 0.0
2018-Jan-11 10:59N 37°54' E 023°05'0 0.0
2018-Jan-11 10:29N 37°54' E 023°05'0 0.0
2018-Jan-11 09:59N 37°54' E 023°05'0 0.0
2018-Jan-11 09:29N 37°54' E 023°05'0 0.0
2018-Jan-11 08:59N 37°54' E 023°05'0 0.0
2018-Jan-11 08:29N 37°54' E 023°05'0 0.0
2018-Jan-11 07:59N 37°54' E 023°05'0 0.1
2018-Jan-11 07:29N 37°54' E 023°05'0 0.0
2018-Jan-11 06:59N 37°54' E 023°05'0 0.1
2018-Jan-11 06:29N 37°54' E 023°05'0 0.0
2018-Jan-11 05:59N 37°54' E 023°05'0 0.0
2018-Jan-11 05:29N 37°54' E 023°05'0 0.0
2018-Jan-11 04:59N 37°54' E 023°05'0 0.1
2018-Jan-11 04:29N 37°54' E 023°05'0 0.1
2018-Jan-11 03:59N 37°54' E 023°05'0 0.1
2018-Jan-11 03:29N 37°54' E 023°05'0 0.1
2018-Jan-11 02:59N 37°54' E 023°05'0 0.1
2018-Jan-11 02:29N 37°54' E 023°05'0 0.0
2018-Jan-11 01:59N 37°54' E 023°05'0 0.1
2018-Jan-11 01:29N 37°54' E 023°05'0 0.0
2018-Jan-11 00:59N 37°54' E 023°05'0 0.1
2018-Jan-11 00:29N 37°54' E 023°05'0 0.0
2018-Jan-10 23:59N 37°54' E 023°05'0 0.0
2018-Jan-10 23:29N 37°54' E 023°05'0 0.0
2018-Jan-10 22:59N 37°54' E 023°05'0 0.1
2018-Jan-10 22:29N 37°54' E 023°05'0 0.1
2018-Jan-10 21:59N 37°54' E 023°05'0 0.1
2018-Jan-10 21:29N 37°54' E 023°05'0 0.0
2018-Jan-10 20:59N 37°54' E 023°05'0 0.1
2018-Jan-10 20:29N 37°54' E 023°05'0 0.0
2018-Jan-10 19:59N 37°54' E 023°05'0 0.1
2018-Jan-10 19:29N 37°54' E 023°05'0 0.0
2018-Jan-10 18:59N 37°54' E 023°05'0 0.0
2018-Jan-10 18:29N 37°54' E 023°05'0 0.1
2018-Jan-10 17:59N 37°54' E 023°05'0 0.0
2018-Jan-10 17:29N 37°54' E 023°05'0 0.0
2018-Jan-10 16:59N 37°54' E 023°05'0 0.0
2018-Jan-10 16:29N 37°54' E 023°05'0 0.1
2018-Jan-10 15:59N 37°54' E 023°05'0 0.0
2018-Jan-10 15:29N 37°54' E 023°05'0 0.1
2018-Jan-10 14:59N 37°54' E 023°05'0 0.1
2018-Jan-10 14:29N 37°54' E 023°05'0 0.1
2018-Jan-10 13:59N 37°54' E 023°05'0 0.0
2018-Jan-10 13:29N 37°54' E 023°05'0 0.0
2018-Jan-10 12:59N 37°54' E 023°05'0 0.0
2018-Jan-10 12:29N 37°54' E 023°05'0 0.1
2018-Jan-10 11:59N 37°54' E 023°05'0 0.1
2018-Jan-10 11:29N 37°54' E 023°05'0 0.0
2018-Jan-10 10:59N 37°54' E 023°05'0 0.1
2018-Jan-10 10:29N 37°54' E 023°05'0 0.1
2018-Jan-10 09:59N 37°54' E 023°05'0 0.0
2018-Jan-10 09:29N 37°54' E 023°05'0 0.1
2018-Jan-10 08:59N 37°54' E 023°05'0 0.0
2018-Jan-10 08:29N 37°54' E 023°05'0 0.1
2018-Jan-10 07:59N 37°54' E 023°05'0 0.2
2018-Jan-10 07:29N 37°54' E 023°05'0 0.1
2018-Jan-10 06:59N 37°54' E 023°05'0 0.0
2018-Jan-10 06:29N 37°54' E 023°05'0 0.1
2018-Jan-10 05:59N 37°54' E 023°05'0 0.1
2018-Jan-10 05:29N 37°54' E 023°05'0 0.1
2018-Jan-10 04:59N 37°54' E 023°05'0 0.0
2018-Jan-10 04:29N 37°54' E 023°05'0 0.0
2018-Jan-10 03:59N 37°54' E 023°05'0 0.1
2018-Jan-10 03:29N 37°54' E 023°05'0 0.1
2018-Jan-10 02:59N 37°54' E 023°05'0 0.1
2018-Jan-10 02:29N 37°54' E 023°05'0 0.1
2018-Jan-10 01:59N 37°54' E 023°05'0 0.1
2018-Jan-10 01:29N 37°54' E 023°05'0 0.1
2018-Jan-10 00:59N 37°54' E 023°05'0 0.0
2018-Jan-10 00:29N 37°54' E 023°05'0 0.1
2018-Jan-09 23:59N 37°54' E 023°05'0 0.1
2018-Jan-09 23:29N 37°54' E 023°05'0 0.1
2018-Jan-09 22:59N 37°54' E 023°05'0 0.1
2018-Jan-09 22:29N 37°54' E 023°05'0 0.1
2018-Jan-09 21:59N 37°54' E 023°05'0 0.1
2018-Jan-09 21:29N 37°54' E 023°05'0 0.1
2018-Jan-09 20:59N 37°54' E 023°05'0 0.1
2018-Jan-09 20:29N 37°54' E 023°05'0 0.1
2018-Jan-09 19:59N 37°54' E 023°05'0 0.0
2018-Jan-09 19:29N 37°54' E 023°05'0 0.0
2018-Jan-09 18:59N 37°54' E 023°05'0 0.0
2018-Jan-09 18:29N 37°54' E 023°05'0 0.0
2018-Jan-09 17:59N 37°54' E 023°05'0 0.0
2018-Jan-09 17:29N 37°54' E 023°05'0 0.1
2018-Jan-09 16:59N 37°54' E 023°05'0 0.2
2018-Jan-09 16:29N 37°54' E 023°05'0 0.1
2018-Jan-09 15:59N 37°54' E 023°05'0 0.0
2018-Jan-09 15:29N 37°54' E 023°05'0 0.2
2018-Jan-09 14:59N 37°54' E 023°05'0 0.1
2018-Jan-09 14:29N 37°54' E 023°05'0 0.1
2018-Jan-09 13:59N 37°54' E 023°05'0 0.1
2018-Jan-09 13:29N 37°54' E 023°05'0 0.2
2018-Jan-09 12:59N 37°54' E 023°05'0 0.2
2018-Jan-09 12:29N 37°54' E 023°05'0 0.2
2018-Jan-09 11:59N 37°54' E 023°05'0 0.1
2018-Jan-09 11:29N 37°54' E 023°05'0 0.1
2018-Jan-09 10:59N 37°54' E 023°05'0 0.0
2018-Jan-09 10:29N 37°54' E 023°05'0 0.0
2018-Jan-09 09:59N 37°54' E 023°05'0 0.1
2018-Jan-09 09:29N 37°54' E 023°05'0 0.1
2018-Jan-09 08:59N 37°54' E 023°05'0 0.0
2018-Jan-09 08:29N 37°54' E 023°05'0 0.1
2018-Jan-09 07:59N 37°54' E 023°05'0 0.1
2018-Jan-09 07:29N 37°54' E 023°05'0 0.0
2018-Jan-09 06:59N 37°54' E 023°05'0 0.0
2018-Jan-09 06:29N 37°54' E 023°05'0 0.1
2018-Jan-09 05:59N 37°54' E 023°05'0 0.1
2018-Jan-09 05:29N 37°54' E 023°05'0 0.0
2018-Jan-09 04:59N 37°54' E 023°05'0 0.0
2018-Jan-09 04:29N 37°54' E 023°05'  
Track history (hours):
 
Tides and Currents Weather Stations Pressure Air Temp Water Temp Dewpoint Dewpoint Depression Visibility Wind Speed Wind Dir Waves Ship Positions

Kriti Spirit

Last reported at 2018-Jan-19 04:03 UTC. Time now 2018-Feb-23 08:56 UTC.
Position N 36°07' E 026°31'.
Warning: this ship's position is 35 days out of date.

Length 274 m; draft 9.5 m.

Type: Tanker. MMSI: 636016367.

Date/timePositionNaut miles runAvg speedWind from/ knotsBaromVisibWave heightAir tempDewpointWater temp
2018-Jan-19 04:03N 36°07' E 026°31'112.6
2018-Jan-19 04:00N 36°07' E 026°30'612.9
2018-Jan-19 03:31N 36°08' E 026°23'612.9
2018-Jan-19 03:01N 36°09' E 026°15'713.1
2018-Jan-19 02:30N 36°10' E 026°07'612.9
2018-Jan-19 02:01N 36°10' E 025°59'612.9
2018-Jan-19 01:30N 36°11' E 025°51'613.0
2018-Jan-19 01:00N 36°12' E 025°43'713.1
2018-Jan-19 00:31N 36°14' E 025°35'713.0
2018-Jan-19 00:00N 36°15' E 025°27'713.1
2018-Jan-18 23:30N 36°17' E 025°19'612.9
2018-Jan-18 23:00N 36°20' E 025°13'612.9
2018-Jan-18 22:30N 36°24' E 025°06'613.0
2018-Jan-18 22:00N 36°27' E 024°59'713.1
2018-Jan-18 21:30N 36°31' E 024°52'713.0
2018-Jan-18 20:59N 36°36' E 024°46'612.7
2018-Jan-18 20:30N 36°42' E 024°46'713.1
2018-Jan-18 20:00N 36°48' E 024°45'713.4
2018-Jan-18 19:30N 36°53' E 024°39'713.4
2018-Jan-18 19:00N 36°57' E 024°32'713.2
2018-Jan-18 18:30N 37°01' E 024°26'613.0
2018-Jan-18 18:00N 37°04' E 024°19'612.8
2018-Jan-18 17:30N 37°08' E 024°12'612.6
2018-Jan-18 17:00N 37°11' E 024°06'612.8
2018-Jan-18 16:30N 37°15' E 023°59'812.9
2018-Jan-18 15:56N 37°20' E 023°52'713.4
2018-Jan-18 15:25N 37°26' E 023°49'613.7
2018-Jan-18 15:00N 37°31' E 023°46'713.4
2018-Jan-18 14:30N 37°38' E 023°43'713.5
2018-Jan-18 14:00N 37°44' E 023°40'713.5
2018-Jan-18 13:30N 37°49' E 023°34'713.0
2018-Jan-18 13:00N 37°50' E 023°26'713.4
2018-Jan-18 12:31N 37°52' E 023°18'713.4
2018-Jan-18 12:00N 37°53' E 023°10'3 5.7
2018-Jan-18 11:30N 37°54' E 023°06'2 3.1
2018-Jan-18 11:00N 37°53' E 023°08'3 6.1
2018-Jan-18 10:30N 37°53' E 023°12'2 3.2
2018-Jan-18 10:00N 37°54' E 023°14'1 1.5
2018-Jan-18 09:30N 37°53' E 023°13'1 1.3
2018-Jan-18 09:00N 37°53' E 023°12'1 1.8
2018-Jan-18 08:30N 37°54' E 023°11'1 2.2
2018-Jan-18 08:00N 37°54' E 023°10'1 1.0
2018-Jan-18 07:30N 37°54' E 023°10'1 1.3
2018-Jan-18 07:00N 37°53' E 023°11'1 1.8
2018-Jan-18 06:30N 37°54' E 023°10'2 4.4
2018-Jan-18 06:00N 37°54' E 023°07'1 2.0
2018-Jan-18 05:29N 37°54' E 023°06'0 0.6
2018-Jan-18 04:59N 37°54' E 023°06'0 0.3
2018-Jan-18 04:29N 37°54' E 023°06'0 0.6
2018-Jan-18 03:59N 37°54' E 023°06'0 0.6
2018-Jan-18 03:29N 37°54' E 023°06'0 0.7
2018-Jan-18 02:59N 37°54' E 023°06'0 0.4
2018-Jan-18 02:29N 37°54' E 023°06'0 0.2
2018-Jan-18 01:59N 37°54' E 023°06'0 0.2
2018-Jan-18 01:29N 37°54' E 023°06'0 0.3
2018-Jan-18 00:59N 37°54' E 023°06'0 0.3
2018-Jan-17 23:59N 37°54' E 023°06'0 1.7
2018-Jan-17 23:56N 37°54' E 023°06'  
2018-Jan-12 14:59N 37°54' E 023°05'0 0.2
2018-Jan-12 14:29N 37°54' E 023°05'0 0.1
2018-Jan-12 13:59N 37°54' E 023°05'0 0.0
2018-Jan-12 13:29N 37°54' E 023°05'0 0.1
2018-Jan-12 12:59N 37°54' E 023°05'0 0.0
2018-Jan-12 12:29N 37°54' E 023°05'0 0.1
2018-Jan-12 11:59N 37°54' E 023°05'0 0.2
2018-Jan-12 11:29N 37°54' E 023°05'0 0.2
2018-Jan-12 10:59N 37°54' E 023°05'0 0.2
2018-Jan-12 10:29N 37°54' E 023°05'0 0.1
2018-Jan-12 09:59N 37°54' E 023°05'0 0.0
2018-Jan-12 09:29N 37°54' E 023°05'0 0.1
2018-Jan-12 08:59N 37°54' E 023°05'0 0.1
2018-Jan-12 08:29N 37°54' E 023°05'0 0.0
2018-Jan-12 07:59N 37°54' E 023°05'0 0.1
2018-Jan-12 07:29N 37°54' E 023°05'0 0.0
2018-Jan-12 06:59N 37°54' E 023°05'0 0.1
2018-Jan-12 06:26N 37°54' E 023°05'0 0.0
2018-Jan-12 05:59N 37°54' E 023°05'0 0.0
2018-Jan-12 05:29N 37°54' E 023°05'0 0.1
2018-Jan-12 04:59N 37°54' E 023°05'0 0.1
2018-Jan-12 04:29N 37°54' E 023°05'0 0.1
2018-Jan-12 03:59N 37°54' E 023°05'0 0.0
2018-Jan-12 03:29N 37°54' E 023°05'0 0.1
2018-Jan-12 02:59N 37°54' E 023°05'0 0.0
2018-Jan-12 02:29N 37°54' E 023°05'0 0.1
2018-Jan-12 01:59N 37°54' E 023°05'0 0.0
2018-Jan-12 01:29N 37°54' E 023°05'0 0.1
2018-Jan-12 00:59N 37°54' E 023°05'0 0.0
2018-Jan-12 00:29N 37°54' E 023°05'0 0.0
2018-Jan-11 23:59N 37°54' E 023°05'0 0.1
2018-Jan-11 23:29N 37°54' E 023°05'0 0.1
2018-Jan-11 22:59N 37°54' E 023°05'0 0.0
2018-Jan-11 22:29N 37°54' E 023°05'0 0.1
2018-Jan-11 21:59N 37°54' E 023°05'0 0.1
2018-Jan-11 21:29N 37°54' E 023°05'0 0.0
2018-Jan-11 20:59N 37°54' E 023°05'0 0.1
2018-Jan-11 20:29N 37°54' E 023°05'0 0.1
2018-Jan-11 19:59N 37°54' E 023°05'0 0.1
2018-Jan-11 19:29N 37°54' E 023°05'0 0.1
2018-Jan-11 18:59N 37°54' E 023°05'0 0.0
2018-Jan-11 18:29N 37°54' E 023°05'0 0.0
2018-Jan-11 17:59N 37°54' E 023°05'0 0.0
2018-Jan-11 17:29N 37°54' E 023°05'0 0.1
2018-Jan-11 16:59N 37°54' E 023°05'0 0.0
2018-Jan-11 16:29N 37°54' E 023°05'0 0.0
2018-Jan-11 15:59N 37°54' E 023°05'0 0.1
2018-Jan-11 15:29N 37°54' E 023°05'0 0.1
2018-Jan-11 14:59N 37°54' E 023°05'0 0.1
2018-Jan-11 14:29N 37°54' E 023°05'0 0.0
2018-Jan-11 13:56N 37°54' E 023°05'0 0.0
2018-Jan-11 13:29N 37°54' E 023°05'0 0.0
2018-Jan-11 12:59N 37°54' E 023°05'0 0.0
2018-Jan-11 12:29N 37°54' E 023°05'0 0.0
2018-Jan-11 11:59N 37°54' E 023°05'0 0.0
2018-Jan-11 11:29N 37°54' E 023°05'0 0.0
2018-Jan-11 10:59N 37°54' E 023°05'0 0.0
2018-Jan-11 10:29N 37°54' E 023°05'0 0.0
2018-Jan-11 09:59N 37°54' E 023°05'0 0.0
2018-Jan-11 09:29N 37°54' E 023°05'0 0.0
2018-Jan-11 08:59N 37°54' E 023°05'0 0.0
2018-Jan-11 08:29N 37°54' E 023°05'0 0.0
2018-Jan-11 07:59N 37°54' E 023°05'0 0.1
2018-Jan-11 07:29N 37°54' E 023°05'0 0.0
2018-Jan-11 06:59N 37°54' E 023°05'0 0.1
2018-Jan-11 06:29N 37°54' E 023°05'0 0.0
2018-Jan-11 05:59N 37°54' E 023°05'0 0.0
2018-Jan-11 05:29N 37°54' E 023°05'0 0.0
2018-Jan-11 04:59N 37°54' E 023°05'0 0.1
2018-Jan-11 04:29N 37°54' E 023°05'0 0.1
2018-Jan-11 03:59N 37°54' E 023°05'0 0.1
2018-Jan-11 03:29N 37°54' E 023°05'0 0.1
2018-Jan-11 02:59N 37°54' E 023°05'0 0.1
2018-Jan-11 02:29N 37°54' E 023°05'0 0.0
2018-Jan-11 01:59N 37°54' E 023°05'0 0.1
2018-Jan-11 01:29N 37°54' E 023°05'0 0.0
2018-Jan-11 00:59N 37°54' E 023°05'0 0.1
2018-Jan-11 00:29N 37°54' E 023°05'0 0.0
2018-Jan-10 23:59N 37°54' E 023°05'0 0.0
2018-Jan-10 23:29N 37°54' E 023°05'0 0.0
2018-Jan-10 22:59N 37°54' E 023°05'0 0.1
2018-Jan-10 22:29N 37°54' E 023°05'0 0.1
2018-Jan-10 21:59N 37°54' E 023°05'0 0.1
2018-Jan-10 21:29N 37°54' E 023°05'0 0.0
2018-Jan-10 20:59N 37°54' E 023°05'0 0.1
2018-Jan-10 20:29N 37°54' E 023°05'0 0.0
2018-Jan-10 19:59N 37°54' E 023°05'0 0.1
2018-Jan-10 19:29N 37°54' E 023°05'0 0.0
2018-Jan-10 18:59N 37°54' E 023°05'0 0.0
2018-Jan-10 18:29N 37°54' E 023°05'0 0.1
2018-Jan-10 17:59N 37°54' E 023°05'0 0.0
2018-Jan-10 17:29N 37°54' E 023°05'0 0.0
2018-Jan-10 16:59N 37°54' E 023°05'0 0.0
2018-Jan-10 16:29N 37°54' E 023°05'0 0.1
2018-Jan-10 15:59N 37°54' E 023°05'0 0.0
2018-Jan-10 15:29N 37°54' E 023°05'0 0.1
2018-Jan-10 14:59N 37°54' E 023°05'0 0.1
2018-Jan-10 14:29N 37°54' E 023°05'0 0.1
2018-Jan-10 13:59N 37°54' E 023°05'0 0.0
2018-Jan-10 13:29N 37°54' E 023°05'0 0.0
2018-Jan-10 12:59N 37°54' E 023°05'0 0.0
2018-Jan-10 12:29N 37°54' E 023°05'0 0.1
2018-Jan-10 11:59N 37°54' E 023°05'0 0.1
2018-Jan-10 11:29N 37°54' E 023°05'0 0.0
2018-Jan-10 10:59N 37°54' E 023°05'0 0.1
2018-Jan-10 10:29N 37°54' E 023°05'0 0.1
2018-Jan-10 09:59N 37°54' E 023°05'0 0.0
2018-Jan-10 09:29N 37°54' E 023°05'0 0.1
2018-Jan-10 08:59N 37°54' E 023°05'0 0.0
2018-Jan-10 08:29N 37°54' E 023°05'0 0.1
2018-Jan-10 07:59N 37°54' E 023°05'0 0.2
2018-Jan-10 07:29N 37°54' E 023°05'0 0.1
2018-Jan-10 06:59N 37°54' E 023°05'0 0.0
2018-Jan-10 06:29N 37°54' E 023°05'0 0.1
2018-Jan-10 05:59N 37°54' E 023°05'0 0.1
2018-Jan-10 05:29N 37°54' E 023°05'0 0.1
2018-Jan-10 04:59N 37°54' E 023°05'0 0.0
2018-Jan-10 04:29N 37°54' E 023°05'0 0.0
2018-Jan-10 03:59N 37°54' E 023°05'0 0.1
2018-Jan-10 03:29N 37°54' E 023°05'0 0.1
2018-Jan-10 02:59N 37°54' E 023°05'0 0.1
2018-Jan-10 02:29N 37°54' E 023°05'0 0.1
2018-Jan-10 01:59N 37°54' E 023°05'0 0.1
2018-Jan-10 01:29N 37°54' E 023°05'0 0.1
2018-Jan-10 00:59N 37°54' E 023°05'0 0.0
2018-Jan-10 00:29N 37°54' E 023°05'0 0.1
2018-Jan-09 23:59N 37°54' E 023°05'0 0.1
2018-Jan-09 23:29N 37°54' E 023°05'0 0.1
2018-Jan-09 22:59N 37°54' E 023°05'0 0.1
2018-Jan-09 22:29N 37°54' E 023°05'0 0.1
2018-Jan-09 21:59N 37°54' E 023°05'0 0.1
2018-Jan-09 21:29N 37°54' E 023°05'0 0.1
2018-Jan-09 20:59N 37°54' E 023°05'0 0.1
2018-Jan-09 20:29N 37°54' E 023°05'0 0.1
2018-Jan-09 19:59N 37°54' E 023°05'0 0.0
2018-Jan-09 19:29N 37°54' E 023°05'0 0.0
2018-Jan-09 18:59N 37°54' E 023°05'0 0.0
2018-Jan-09 18:29N 37°54' E 023°05'0 0.0
2018-Jan-09 17:59N 37°54' E 023°05'0 0.0
2018-Jan-09 17:29N 37°54' E 023°05'0 0.1
2018-Jan-09 16:59N 37°54' E 023°05'0 0.2
2018-Jan-09 16:29N 37°54' E 023°05'0 0.1
2018-Jan-09 15:59N 37°54' E 023°05'0 0.0
2018-Jan-09 15:29N 37°54' E 023°05'0 0.2
2018-Jan-09 14:59N 37°54' E 023°05'0 0.1
2018-Jan-09 14:29N 37°54' E 023°05'0 0.1
2018-Jan-09 13:59N 37°54' E 023°05'0 0.1
2018-Jan-09 13:29N 37°54' E 023°05'0 0.2
2018-Jan-09 12:59N 37°54' E 023°05'0 0.2
2018-Jan-09 12:29N 37°54' E 023°05'0 0.2
2018-Jan-09 11:59N 37°54' E 023°05'0 0.1
2018-Jan-09 11:29N 37°54' E 023°05'0 0.1
2018-Jan-09 10:59N 37°54' E 023°05'0 0.0
2018-Jan-09 10:29N 37°54' E 023°05'0 0.0
2018-Jan-09 09:59N 37°54' E 023°05'0 0.1
2018-Jan-09 09:29N 37°54' E 023°05'0 0.1
2018-Jan-09 08:59N 37°54' E 023°05'0 0.0
2018-Jan-09 08:29N 37°54' E 023°05'0 0.1
2018-Jan-09 07:59N 37°54' E 023°05'0 0.1
2018-Jan-09 07:29N 37°54' E 023°05'0 0.0
2018-Jan-09 06:59N 37°54' E 023°05'0 0.0
2018-Jan-09 06:29N 37°54' E 023°05'0 0.1
2018-Jan-09 05:59N 37°54' E 023°05'0 0.1
2018-Jan-09 05:29N 37°54' E 023°05'0 0.0
2018-Jan-09 04:59N 37°54' E 023°05'0 0.0
2018-Jan-09 04:29N 37°54' E 023°05'  

Dump ship's entire track history